sensor_id;sensor_type;location;lat;lon;timestamp;pressure;altitude;pressure_sealevel;temperature;humidity
17593;BME280;8915;51.760;14.300;2023-02-28T00:02:25;102337.31;;;-1.49;100.00
17593;BME280;8915;51.760;14.300;2023-02-28T00:04:51;102338.09;;;-1.50;100.00
17593;BME280;8915;51.760;14.300;2023-02-28T00:07:26;102343.16;;;-1.52;100.00
17593;BME280;8915;51.760;14.300;2023-02-28T00:09:53;102333.72;;;-1.53;100.00
17593;BME280;8915;51.760;14.300;2023-02-28T00:12:19;102333.66;;;-1.54;100.00
17593;BME280;8915;51.760;14.300;2023-02-28T00:14:46;102335.47;;;-1.52;100.00
17593;BME280;8915;51.760;14.300;2023-02-28T00:17:14;102336.28;;;-1.53;100.00
17593;BME280;8915;51.760;14.300;2023-02-28T00:19:41;102342.13;;;-1.55;100.00
17593;BME280;8915;51.760;14.300;2023-02-28T00:22:07;102338.53;;;-1.59;100.00
17593;BME280;8915;51.760;14.300;2023-02-28T00:24:34;102340.13;;;-1.61;100.00
17593;BME280;8915;51.760;14.300;2023-02-28T00:27:01;102335.19;;;-1.58;100.00
17593;BME280;8915;51.760;14.300;2023-02-28T00:29:27;102330.94;;;-1.57;100.00
17593;BME280;8915;51.760;14.300;2023-02-28T00:31:53;102330.94;;;-1.57;100.00
17593;BME280;8915;51.760;14.300;2023-02-28T00:34:21;102324.00;;;-1.60;100.00
17593;BME280;8915;51.760;14.300;2023-02-28T00:36:48;102328.19;;;-1.60;100.00
17593;BME280;8915;51.760;14.300;2023-02-28T00:42:35;102337.47;;;-1.62;100.00
17593;BME280;8915;51.760;14.300;2023-02-28T00:45:02;102333.19;;;-1.63;100.00
17593;BME280;8915;51.760;14.300;2023-02-28T00:47:29;102332.38;;;-1.62;100.00
17593;BME280;8915;51.760;14.300;2023-02-28T00:49:57;102328.94;;;-1.63;100.00
17593;BME280;8915;51.760;14.300;2023-02-28T00:52:24;102329.66;;;-1.65;100.00
17593;BME280;8915;51.760;14.300;2023-02-28T00:54:50;102322.88;;;-1.65;100.00
17593;BME280;8915;51.760;14.300;2023-02-28T00:57:16;102328.78;;;-1.66;100.00
17593;BME280;8915;51.760;14.300;2023-02-28T00:59:43;102334.72;;;-1.67;100.00
17593;BME280;8915;51.760;14.300;2023-02-28T01:02:13;102336.28;;;-1.69;100.00
17593;BME280;8915;51.760;14.300;2023-02-28T01:04:43;102326.88;;;-1.70;100.00
17593;BME280;8915;51.760;14.300;2023-02-28T01:07:10;102330.31;;;-1.69;100.00
17593;BME280;8915;51.760;14.300;2023-02-28T01:09:37;102333.69;;;-1.70;100.00
17593;BME280;8915;51.760;14.300;2023-02-28T01:12:06;102333.50;;;-1.74;100.00
17593;BME280;8915;51.760;14.300;2023-02-28T01:14:33;102329.34;;;-1.72;100.00
17593;BME280;8915;51.760;14.300;2023-02-28T01:17:00;102331.13;;;-1.70;100.00
17593;BME280;8915;51.760;14.300;2023-02-28T01:19:27;102331.03;;;-1.72;100.00
17593;BME280;8915;51.760;14.300;2023-02-28T01:21:53;102320.88;;;-1.70;100.00
17593;BME280;8915;51.760;14.300;2023-02-28T01:24:21;102331.16;;;-1.69;100.00
17593;BME280;8915;51.760;14.300;2023-02-28T01:26:47;102326.72;;;-1.73;100.00
17593;BME280;8915;51.760;14.300;2023-02-28T01:29:14;102330.22;;;-1.71;100.00
17593;BME280;8915;51.760;14.300;2023-02-28T01:31:41;102328.56;;;-1.70;100.00
17593;BME280;8915;51.760;14.300;2023-02-28T01:34:07;102321.84;;;-1.68;100.00
17593;BME280;8915;51.760;14.300;2023-02-28T01:36:34;102331.03;;;-1.72;100.00
17593;BME280;8915;51.760;14.300;2023-02-28T01:46:14;102321.69;;;-1.72;100.00
17593;BME280;8915;51.760;14.300;2023-02-28T01:52:29;102317.59;;;-1.68;100.00
17593;BME280;8915;51.760;14.300;2023-02-28T01:54:59;102326.31;;;-1.64;100.00
17593;BME280;8915;51.760;14.300;2023-02-28T01:57:32;102326.56;;;-1.60;100.00
17593;BME280;8915;51.760;14.300;2023-02-28T02:00:05;102319.75;;;-1.59;100.00
17593;BME280;8915;51.760;14.300;2023-02-28T02:02:47;102319.75;;;-1.59;100.00
17593;BME280;8915;51.760;14.300;2023-02-28T02:05:17;102324.13;;;-1.57;100.00
17593;BME280;8915;51.760;14.300;2023-02-28T02:07:45;102325.09;;;-1.55;100.00
17593;BME280;8915;51.760;14.300;2023-02-28T02:10:14;102322.53;;;-1.55;100.00
17593;BME280;8915;51.760;14.300;2023-02-28T02:13:03;102320.84;;;-1.54;100.00
17593;BME280;8915;51.760;14.300;2023-02-28T02:15:35;102316.59;;;-1.54;100.00
17593;BME280;8915;51.760;14.300;2023-02-28T02:18:10;102317.47;;;-1.53;100.00
17593;BME280;8915;51.760;14.300;2023-02-28T02:20:58;102313.19;;;-1.54;100.00
17593;BME280;8915;51.760;14.300;2023-02-28T02:23:47;102308.84;;;-1.55;100.00
17593;BME280;8915;51.760;14.300;2023-02-28T02:29:22;102306.94;;;-1.59;100.00
17593;BME280;8915;51.760;14.300;2023-02-28T02:32:22;102306.94;;;-1.59;100.00
17593;BME280;8915;51.760;14.300;2023-02-28T02:35:06;102299.13;;;-1.62;100.00
17593;BME280;8915;51.760;14.300;2023-02-28T02:37:43;102295.53;;;-1.66;100.00
17593;BME280;8915;51.760;14.300;2023-02-28T02:40:15;102299.78;;;-1.66;100.00
17593;BME280;8915;51.760;14.300;2023-02-28T02:42:47;102302.00;;;-1.73;100.00
17593;BME280;8915;51.760;14.300;2023-02-28T02:45:21;102305.47;;;-1.72;100.00
17593;BME280;8915;51.760;14.300;2023-02-28T02:47:50;102306.97;;;-1.76;100.00
17593;BME280;8915;51.760;14.300;2023-02-28T02:50:22;102302.50;;;-1.80;100.00
17593;BME280;8915;51.760;14.300;2023-02-28T02:52:53;102302.38;;;-1.83;100.00
17593;BME280;8915;51.760;14.300;2023-02-28T02:55:23;102302.97;;;-1.87;100.00
17593;BME280;8915;51.760;14.300;2023-02-28T02:57:52;102298.44;;;-1.93;100.00
17593;BME280;8915;51.760;14.300;2023-02-28T03:00:23;102302.59;;;-1.95;100.00
17593;BME280;8915;51.760;14.300;2023-02-28T03:02:52;102295.41;;;-2.02;100.00
17593;BME280;8915;51.760;14.300;2023-02-28T03:05:50;102299.22;;;-2.10;100.00
17593;BME280;8915;51.760;14.300;2023-02-28T03:08:17;102293.88;;;-2.15;100.00
17593;BME280;8915;51.760;14.300;2023-02-28T03:10:46;102297.06;;;-2.19;100.00
17593;BME280;8915;51.760;14.300;2023-02-28T03:13:31;102294.22;;;-2.25;100.00
17593;BME280;8915;51.760;14.300;2023-02-28T03:16:17;102293.00;;;-2.32;100.00
17593;BME280;8915;51.760;14.300;2023-02-28T03:18:54;102296.16;;;-2.36;100.00
17593;BME280;8915;51.760;14.300;2023-02-28T03:21:29;102301.75;;;-2.43;100.00
17593;BME280;8915;51.760;14.300;2023-02-28T03:24:04;102293.94;;;-2.46;100.00
17593;BME280;8915;51.760;14.300;2023-02-28T03:26:34;102308.16;;;-2.51;100.00
17593;BME280;8915;51.760;14.300;2023-02-28T03:32:54;102299.00;;;-2.62;100.00
17593;BME280;8915;51.760;14.300;2023-02-28T03:35:24;102293.09;;;-2.61;100.00
17593;BME280;8915;51.760;14.300;2023-02-28T03:37:59;102296.13;;;-2.69;100.00
17593;BME280;8915;51.760;14.300;2023-02-28T03:48:38;102309.81;;;-2.83;100.00
17593;BME280;8915;51.760;14.300;2023-02-28T03:51:07;102306.13;;;-2.88;100.00
17593;BME280;8915;51.760;14.300;2023-02-28T03:53:38;102306.91;;;-2.89;100.00
17593;BME280;8915;51.760;14.300;2023-02-28T03:56:12;102310.97;;;-2.93;100.00
17593;BME280;8915;51.760;14.300;2023-02-28T03:58:46;102308.41;;;-2.93;100.00
17593;BME280;8915;51.760;14.300;2023-02-28T04:01:17;102316.34;;;-3.03;100.00
17593;BME280;8915;51.760;14.300;2023-02-28T04:03:45;102314.50;;;-3.06;100.00
17593;BME280;8915;51.760;14.300;2023-02-28T04:06:15;102310.00;;;-3.10;100.00
17593;BME280;8915;51.760;14.300;2023-02-28T04:08:43;102311.78;;;-3.09;100.00
17593;BME280;8915;51.760;14.300;2023-02-28T04:11:18;102309.03;;;-3.12;100.00
17593;BME280;8915;51.760;14.300;2023-02-28T04:13:46;102310.63;;;-3.14;100.00
17593;BME280;8915;51.760;14.300;2023-02-28T04:16:13;102304.13;;;-3.09;100.00
17593;BME280;8915;51.760;14.300;2023-02-28T04:18:40;102309.50;;;-3.19;100.00
17593;BME280;8915;51.760;14.300;2023-02-28T04:21:08;102300.34;;;-3.15;100.00
17593;BME280;8915;51.760;14.300;2023-02-28T04:23:36;102299.72;;;-3.26;100.00
17593;BME280;8915;51.760;14.300;2023-02-28T04:26:04;102298.94;;;-3.40;100.00
17593;BME280;8915;51.760;14.300;2023-02-28T04:28:34;102301.59;;;-3.53;100.00
17593;BME280;8915;51.760;14.300;2023-02-28T04:31:02;102304.38;;;-3.64;100.00
17593;BME280;8915;51.760;14.300;2023-02-28T04:33:30;102309.81;;;-3.57;100.00
17593;BME280;8915;51.760;14.300;2023-02-28T04:36:01;102291.88;;;-3.59;100.00
17593;BME280;8915;51.760;14.300;2023-02-28T04:38:28;102306.75;;;-3.82;100.00
17593;BME280;8915;51.760;14.300;2023-02-28T04:40:56;102309.97;;;-3.84;100.00
17593;BME280;8915;51.760;14.300;2023-02-28T04:43:25;102302.50;;;-3.81;100.00
17593;BME280;8915;51.760;14.300;2023-02-28T04:45:52;102292.94;;;-3.70;100.00
17593;BME280;8915;51.760;14.300;2023-02-28T04:48:19;102304.25;;;-3.80;100.00
17593;BME280;8915;51.760;14.300;2023-02-28T04:50:45;102304.00;;;-4.13;100.00
17593;BME280;8915;51.760;14.300;2023-02-28T04:53:12;102309.03;;;-4.28;100.00
17593;BME280;8915;51.760;14.300;2023-02-28T04:55:38;102308.69;;;-4.34;100.00
17593;BME280;8915;51.760;14.300;2023-02-28T04:58:05;102299.34;;;-4.20;100.00
17593;BME280;8915;51.760;14.300;2023-02-28T05:00:33;102297.44;;;-4.09;100.00
17593;BME280;8915;51.760;14.300;2023-02-28T05:03:04;102301.25;;;-4.03;100.00
17593;BME280;8915;51.760;14.300;2023-02-28T05:05:31;102305.44;;;-4.31;100.00
17593;BME280;8915;51.760;14.300;2023-02-28T05:12:15;102313.69;;;-4.49;100.00
17593;BME280;8915;51.760;14.300;2023-02-28T05:14:42;102306.25;;;-4.46;100.00
17593;BME280;8915;51.760;14.300;2023-02-28T05:17:10;102308.94;;;-4.29;100.00
17593;BME280;8915;51.760;14.300;2023-02-28T05:19:36;102309.97;;;-4.41;100.00
17593;BME280;8915;51.760;14.300;2023-02-28T05:22:03;102309.22;;;-4.66;100.00
17593;BME280;8915;51.760;14.300;2023-02-28T05:24:29;102320.59;;;-4.74;100.00
17593;BME280;8915;51.760;14.300;2023-02-28T05:30:18;102326.06;;;-4.82;100.00
17593;BME280;8915;51.760;14.300;2023-02-28T05:32:50;102324.59;;;-4.78;100.00
17593;BME280;8915;51.760;14.300;2023-02-28T05:35:17;102325.19;;;-4.69;100.00
17593;BME280;8915;51.760;14.300;2023-02-28T05:41:09;102335.06;;;-4.60;100.00
17593;BME280;8915;51.760;14.300;2023-02-28T05:43:37;102341.94;;;-4.72;100.00
17593;BME280;8915;51.760;14.300;2023-02-28T05:46:04;102345.44;;;-4.84;100.00
17593;BME280;8915;51.760;14.300;2023-02-28T05:48:33;102344.56;;;-4.98;100.00
17593;BME280;8915;51.760;14.300;2023-02-28T05:51:00;102355.03;;;-4.93;100.00
17593;BME280;8915;51.760;14.300;2023-02-28T05:53:27;102358.84;;;-4.86;100.00
17593;BME280;8915;51.760;14.300;2023-02-28T05:55:53;102350.03;;;-4.91;100.00
17593;BME280;8915;51.760;14.300;2023-02-28T05:58:20;102354.34;;;-5.04;100.00
17593;BME280;8915;51.760;14.300;2023-02-28T06:00:46;102357.47;;;-4.95;100.00
17593;BME280;8915;51.760;14.300;2023-02-28T06:03:13;102361.59;;;-4.97;100.00
17593;BME280;8915;51.760;14.300;2023-02-28T06:05:41;102358.97;;;-4.85;100.00
17593;BME280;8915;51.760;14.300;2023-02-28T06:08:08;102369.63;;;-4.77;100.00
17593;BME280;8915;51.760;14.300;2023-02-28T06:17:58;102375.69;;;-4.62;100.00
17593;BME280;8915;51.760;14.300;2023-02-28T06:20:26;102370.59;;;-4.62;100.00
17593;BME280;8915;51.760;14.300;2023-02-28T06:22:55;102373.63;;;-4.54;100.00
17593;BME280;8915;51.760;14.300;2023-02-28T06:25:23;102372.56;;;-4.58;100.00
17593;BME280;8915;51.760;14.300;2023-02-28T06:27:50;102377.19;;;-4.52;100.00
17593;BME280;8915;51.760;14.300;2023-02-28T06:30:16;102382.25;;;-4.39;100.00
17593;BME280;8915;51.760;14.300;2023-02-28T06:32:43;102390.06;;;-4.35;100.00
17593;BME280;8915;51.760;14.300;2023-02-28T06:38:28;102392.00;;;-4.18;100.00
17593;BME280;8915;51.760;14.300;2023-02-28T06:40:55;102392.47;;;-4.10;100.00
17593;BME280;8915;51.760;14.300;2023-02-28T06:43:24;102395.41;;;-4.04;100.00
17593;BME280;8915;51.760;14.300;2023-02-28T06:45:54;102395.78;;;-3.98;100.00
17593;BME280;8915;51.760;14.300;2023-02-28T06:52:07;102393.47;;;-3.80;100.00
17593;BME280;8915;51.760;14.300;2023-02-28T06:54:37;102390.44;;;-3.74;100.00
17593;BME280;8915;51.760;14.300;2023-02-28T06:57:03;102391.66;;;-3.68;100.00
17593;BME280;8915;51.760;14.300;2023-02-28T06:59:30;102399.69;;;-3.62;100.00
17593;BME280;8915;51.760;14.300;2023-02-28T07:01:56;102404.47;;;-3.53;100.00
17593;BME280;8915;51.760;14.300;2023-02-28T07:04:23;102406.59;;;-3.46;100.00
17593;BME280;8915;51.760;14.300;2023-02-28T07:06:49;102410.38;;;-3.39;100.00
17593;BME280;8915;51.760;14.300;2023-02-28T07:09:16;102410.16;;;-3.29;100.00
17593;BME280;8915;51.760;14.300;2023-02-28T07:11:45;102410.41;;;-3.24;100.00
17593;BME280;8915;51.760;14.300;2023-02-28T07:14:12;102404.38;;;-3.11;100.00
17593;BME280;8915;51.760;14.300;2023-02-28T07:16:38;102407.25;;;-3.05;100.00
17593;BME280;8915;51.760;14.300;2023-02-28T07:19:04;102407.78;;;-2.96;100.00
17593;BME280;8915;51.760;14.300;2023-02-28T07:22:05;102404.88;;;-2.87;100.00
17593;BME280;8915;51.760;14.300;2023-02-28T07:28:20;102423.00;;;-2.68;100.00
17593;BME280;8915;51.760;14.300;2023-02-28T07:34:34;102427.66;;;-2.45;100.00
17593;BME280;8915;51.760;14.300;2023-02-28T07:37:02;102429.94;;;-2.35;100.00
17593;BME280;8915;51.760;14.300;2023-02-28T07:40:01;102435.72;;;-2.23;100.00
17593;BME280;8915;51.760;14.300;2023-02-28T07:43:08;102429.50;;;-2.12;100.00
17593;BME280;8915;51.760;14.300;2023-02-28T07:46:02;102438.56;;;-2.02;100.00
17593;BME280;8915;51.760;14.300;2023-02-28T07:48:29;102442.34;;;-1.95;100.00
17593;BME280;8915;51.760;14.300;2023-02-28T07:50:55;102446.34;;;-1.84;100.00
17593;BME280;8915;51.760;14.300;2023-02-28T07:53:22;102443.50;;;-1.74;100.00
17593;BME280;8915;51.760;14.300;2023-02-28T07:55:48;102445.75;;;-1.63;100.00
17593;BME280;8915;51.760;14.300;2023-02-28T07:58:15;102449.66;;;-1.54;100.00
17593;BME280;8915;51.760;14.300;2023-02-28T08:00:41;102445.91;;;-1.44;100.00
17593;BME280;8915;51.760;14.300;2023-02-28T08:06:49;102451.34;;;-1.21;100.00
17593;BME280;8915;51.760;14.300;2023-02-28T08:13:16;102455.56;;;-1.05;100.00
17593;BME280;8915;51.760;14.300;2023-02-28T08:19:30;102458.00;;;-0.90;100.00
17593;BME280;8915;51.760;14.300;2023-02-28T08:34:07;102463.78;;;-0.42;100.00
17593;BME280;8915;51.760;14.300;2023-02-28T08:36:59;102469.34;;;-0.33;100.00
17593;BME280;8915;51.760;14.300;2023-02-28T08:39:34;102470.56;;;-0.25;100.00
17593;BME280;8915;51.760;14.300;2023-02-28T08:42:18;102470.88;;;-0.18;100.00
17593;BME280;8915;51.760;14.300;2023-02-28T08:51:26;102472.63;;;0.01;100.00
17593;BME280;8915;51.760;14.300;2023-02-28T08:53:54;102466.75;;;0.03;100.00
17593;BME280;8915;51.760;14.300;2023-02-28T08:56:21;102472.19;;;0.09;100.00
17593;BME280;8915;51.760;14.300;2023-02-28T08:58:49;102464.09;;;0.20;100.00
17593;BME280;8915;51.760;14.300;2023-02-28T09:01:17;102478.22;;;0.29;100.00
17593;BME280;8915;51.760;14.300;2023-02-28T09:03:46;102478.44;;;0.34;100.00
17593;BME280;8915;51.760;14.300;2023-02-28T09:06:14;102482.16;;;0.41;100.00
17593;BME280;8915;51.760;14.300;2023-02-28T09:08:42;102481.72;;;0.49;100.00
17593;BME280;8915;51.760;14.300;2023-02-28T09:11:09;102478.63;;;0.58;100.00
17593;BME280;8915;51.760;14.300;2023-02-28T09:13:37;102481.56;;;0.66;100.00
17593;BME280;8915;51.760;14.300;2023-02-28T09:16:05;102479.94;;;0.68;100.00
17593;BME280;8915;51.760;14.300;2023-02-28T09:18:33;102474.41;;;0.78;100.00
17593;BME280;8915;51.760;14.300;2023-02-28T09:21:03;102472.56;;;0.75;100.00
17593;BME280;8915;51.760;14.300;2023-02-28T09:23:30;102475.34;;;0.80;100.00
17593;BME280;8915;51.760;14.300;2023-02-28T09:25:57;102475.81;;;0.91;99.72
17593;BME280;8915;51.760;14.300;2023-02-28T09:28:24;102469.88;;;0.92;99.57
17593;BME280;8915;51.760;14.300;2023-02-28T09:30:52;102478.28;;;1.09;98.53
17593;BME280;8915;51.760;14.300;2023-02-28T09:33:20;102486.03;;;1.10;92.07
17593;BME280;8915;51.760;14.300;2023-02-28T09:35:47;102472.34;;;1.10;94.44
17593;BME280;8915;51.760;14.300;2023-02-28T09:38:13;102483.75;;;1.17;87.05
17593;BME280;8915;51.760;14.300;2023-02-28T09:40:47;102484.56;;;1.16;84.78
17593;BME280;8915;51.760;14.300;2023-02-28T09:43:17;102482.31;;;1.02;87.38
17593;BME280;8915;51.760;14.300;2023-02-28T09:45:48;102475.31;;;1.00;88.72
17593;BME280;8915;51.760;14.300;2023-02-28T09:48:18;102489.78;;;0.98;83.82
17593;BME280;8915;51.760;14.300;2023-02-28T09:50:49;102484.78;;;1.01;80.76
17593;BME280;8915;51.760;14.300;2023-02-28T09:53:22;102472.53;;;1.15;84.30
17593;BME280;8915;51.760;14.300;2023-02-28T09:55:55;102476.84;;;1.16;77.30
17593;BME280;8915;51.760;14.300;2023-02-28T09:58:29;102478.94;;;1.24;80.94
17593;BME280;8915;51.760;14.300;2023-02-28T10:04:50;102474.06;;;1.30;77.62
17593;BME280;8915;51.760;14.300;2023-02-28T10:07:41;102478.56;;;1.36;75.16
17593;BME280;8915;51.760;14.300;2023-02-28T10:10:19;102476.38;;;1.45;75.11
17593;BME280;8915;51.760;14.300;2023-02-28T10:12:48;102471.78;;;1.59;76.14
17593;BME280;8915;51.760;14.300;2023-02-28T10:15:21;102478.13;;;1.67;68.80
17593;BME280;8915;51.760;14.300;2023-02-28T10:17:53;102477.22;;;1.67;69.83
17593;BME280;8915;51.760;14.300;2023-02-28T10:20:32;102478.56;;;1.78;70.04
17593;BME280;8915;51.760;14.300;2023-02-28T10:23:25;102474.13;;;1.53;69.67
17593;BME280;8915;51.760;14.300;2023-02-28T10:29:42;102463.88;;;1.33;77.81
17593;BME280;8915;51.760;14.300;2023-02-28T10:32:12;102469.66;;;1.28;76.40
17593;BME280;8915;51.760;14.300;2023-02-28T10:35:01;102467.91;;;1.27;77.07
17593;BME280;8915;51.760;14.300;2023-02-28T10:41:27;102453.56;;;1.32;74.91
17593;BME280;8915;51.760;14.300;2023-02-28T10:44:13;102462.28;;;1.36;72.34
17593;BME280;8915;51.760;14.300;2023-02-28T10:46:41;102461.13;;;1.50;70.60
17593;BME280;8915;51.760;14.300;2023-02-28T10:49:15;102460.44;;;1.54;71.82
17593;BME280;8915;51.760;14.300;2023-02-28T10:51:43;102459.19;;;1.65;72.26
17593;BME280;8915;51.760;14.300;2023-02-28T10:54:15;102460.94;;;1.66;69.76
17593;BME280;8915;51.760;14.300;2023-02-28T10:56:42;102461.22;;;1.74;68.16
17593;BME280;8915;51.760;14.300;2023-02-28T10:59:27;102467.56;;;1.82;67.71
17593;BME280;8915;51.760;14.300;2023-02-28T11:01:54;102454.38;;;1.96;72.36
17593;BME280;8915;51.760;14.300;2023-02-28T11:04:33;102457.63;;;2.14;70.63
17593;BME280;8915;51.760;14.300;2023-02-28T11:07:03;102450.81;;;2.16;69.82
17593;BME280;8915;51.760;14.300;2023-02-28T11:09:32;102460.84;;;2.31;68.23
17593;BME280;8915;51.760;14.300;2023-02-28T11:12:01;102458.09;;;2.26;67.62
17593;BME280;8915;51.760;14.300;2023-02-28T11:14:32;102448.38;;;2.19;68.11
17593;BME280;8915;51.760;14.300;2023-02-28T11:17:03;102448.16;;;2.13;67.80
17593;BME280;8915;51.760;14.300;2023-02-28T11:19:44;102454.19;;;2.14;67.02
17593;BME280;8915;51.760;14.300;2023-02-28T11:22:17;102446.81;;;2.00;66.04
17593;BME280;8915;51.760;14.300;2023-02-28T11:24:47;102435.81;;;2.04;67.65
17593;BME280;8915;51.760;14.300;2023-02-28T11:27:27;102444.94;;;2.19;67.61
17593;BME280;8915;51.760;14.300;2023-02-28T11:30:23;102437.88;;;2.13;66.03
17593;BME280;8915;51.760;14.300;2023-02-28T11:32:50;102432.66;;;2.34;68.81
17593;BME280;8915;51.760;14.300;2023-02-28T11:35:23;102428.00;;;2.48;68.35
17593;BME280;8915;51.760;14.300;2023-02-28T11:37:51;102437.72;;;2.57;65.67
17593;BME280;8915;51.760;14.300;2023-02-28T11:40:23;102428.25;;;2.56;65.53
17593;BME280;8915;51.760;14.300;2023-02-28T11:43:00;102435.38;;;2.63;64.86
17593;BME280;8915;51.760;14.300;2023-02-28T11:45:45;102430.72;;;2.53;64.13
17593;BME280;8915;51.760;14.300;2023-02-28T11:48:20;102432.63;;;2.58;63.83
17593;BME280;8915;51.760;14.300;2023-02-28T11:51:04;102420.47;;;2.54;64.35
17593;BME280;8915;51.760;14.300;2023-02-28T11:54:04;102428.63;;;2.67;65.68
17593;BME280;8915;51.760;14.300;2023-02-28T11:56:36;102426.28;;;2.73;64.94
17593;BME280;8915;51.760;14.300;2023-02-28T11:59:30;102427.97;;;2.72;64.05
17593;BME280;8915;51.760;14.300;2023-02-28T12:02:16;102420.19;;;2.71;64.04
17593;BME280;8915;51.760;14.300;2023-02-28T12:04:52;102421.28;;;2.77;64.32
17593;BME280;8915;51.760;14.300;2023-02-28T12:07:28;102420.84;;;2.89;64.76
17593;BME280;8915;51.760;14.300;2023-02-28T12:10:06;102429.44;;;2.90;63.73
17593;BME280;8915;51.760;14.300;2023-02-28T12:12:42;102415.06;;;2.96;62.67
17593;BME280;8915;51.760;14.300;2023-02-28T12:15:29;102419.97;;;2.89;62.47
17593;BME280;8915;51.760;14.300;2023-02-28T12:18:11;102409.97;;;2.98;64.48
17593;BME280;8915;51.760;14.300;2023-02-28T12:20:45;102409.34;;;3.05;63.89
17593;BME280;8915;51.760;14.300;2023-02-28T12:23:45;102402.75;;;3.13;64.29
17593;BME280;8915;51.760;14.300;2023-02-28T12:26:17;102412.44;;;3.20;63.73
17593;BME280;8915;51.760;14.300;2023-02-28T12:28:49;102399.66;;;3.25;64.04
17593;BME280;8915;51.760;14.300;2023-02-28T12:31:19;102397.03;;;3.23;63.87
17593;BME280;8915;51.760;14.300;2023-02-28T12:33:50;102396.38;;;3.29;63.01
17593;BME280;8915;51.760;14.300;2023-02-28T12:36:19;102395.66;;;3.33;63.92
17593;BME280;8915;51.760;14.300;2023-02-28T12:38:52;102389.69;;;3.36;64.64
17593;BME280;8915;51.760;14.300;2023-02-28T12:41:23;102389.41;;;3.27;64.20
17593;BME280;8915;51.760;14.300;2023-02-28T12:44:03;102388.31;;;3.18;65.37
17593;BME280;8915;51.760;14.300;2023-02-28T12:46:34;102378.00;;;3.18;64.60
17593;BME280;8915;51.760;14.300;2023-02-28T12:49:06;102385.22;;;3.30;63.13
17593;BME280;8915;51.760;14.300;2023-02-28T12:51:35;102377.66;;;3.35;63.80
17593;BME280;8915;51.760;14.300;2023-02-28T12:54:12;102377.59;;;3.33;61.38
17593;BME280;8915;51.760;14.300;2023-02-28T12:56:46;102374.22;;;3.34;61.86
17593;BME280;8915;51.760;14.300;2023-02-28T12:59:20;102374.78;;;3.26;62.52
17593;BME280;8915;51.760;14.300;2023-02-28T13:02:00;102372.97;;;3.23;60.89
17593;BME280;8915;51.760;14.300;2023-02-28T13:04:43;102367.91;;;3.26;62.26
17593;BME280;8915;51.760;14.300;2023-02-28T13:07:37;102365.28;;;3.25;61.41
17593;BME280;8915;51.760;14.300;2023-02-28T13:10:11;102355.50;;;3.41;63.63
17593;BME280;8915;51.760;14.300;2023-02-28T13:12:47;102354.56;;;3.38;61.05
17593;BME280;8915;51.760;14.300;2023-02-28T13:15:18;102363.00;;;3.34;60.56
17593;BME280;8915;51.760;14.300;2023-02-28T13:17:48;102356.06;;;3.31;60.28
17593;BME280;8915;51.760;14.300;2023-02-28T13:20:18;102349.94;;;3.28;61.50
17593;BME280;8915;51.760;14.300;2023-02-28T13:22:46;102352.84;;;3.38;61.18
17593;BME280;8915;51.760;14.300;2023-02-28T13:28:59;102346.50;;;3.29;60.24
17593;BME280;8915;51.760;14.300;2023-02-28T13:31:26;102352.44;;;3.26;60.53
17593;BME280;8915;51.760;14.300;2023-02-28T13:34:11;102344.72;;;3.26;60.53
17593;BME280;8915;51.760;14.300;2023-02-28T13:36:38;102343.84;;;3.26;61.14
17593;BME280;8915;51.760;14.300;2023-02-28T13:39:46;102336.41;;;3.35;61.04
17593;BME280;8915;51.760;14.300;2023-02-28T13:42:32;102332.25;;;3.40;62.27
17593;BME280;8915;51.760;14.300;2023-02-28T13:45:24;102335.56;;;3.36;61.08
17593;BME280;8915;51.760;14.300;2023-02-28T13:47:52;102330.41;;;3.36;61.36
17593;BME280;8915;51.760;14.300;2023-02-28T13:50:28;102335.75;;;3.42;61.39
17593;BME280;8915;51.760;14.300;2023-02-28T13:53:19;102337.41;;;3.40;61.28
17593;BME280;8915;51.760;14.300;2023-02-28T13:55:54;102321.78;;;3.35;61.80
17593;BME280;8915;51.760;14.300;2023-02-28T13:58:40;102321.75;;;3.34;62.34
17593;BME280;8915;51.760;14.300;2023-02-28T14:01:16;102318.50;;;3.39;63.50
17593;BME280;8915;51.760;14.300;2023-02-28T14:03:58;102320.06;;;3.34;62.61
17593;BME280;8915;51.760;14.300;2023-02-28T14:06:29;102323.34;;;3.30;61.02
17593;BME280;8915;51.760;14.300;2023-02-28T14:08:59;102319.91;;;3.30;61.55
17593;BME280;8915;51.760;14.300;2023-02-28T14:11:31;102311.38;;;3.32;62.06
17593;BME280;8915;51.760;14.300;2023-02-28T14:13:58;102307.94;;;3.32;62.00
17593;BME280;8915;51.760;14.300;2023-02-28T14:16:27;102301.00;;;3.29;62.97
17593;BME280;8915;51.760;14.300;2023-02-28T14:19:03;102313.03;;;3.30;61.01
17593;BME280;8915;51.760;14.300;2023-02-28T14:21:38;102302.88;;;3.35;62.90
17593;BME280;8915;51.760;14.300;2023-02-28T14:24:21;102308.72;;;3.29;61.29
17593;BME280;8915;51.760;14.300;2023-02-28T14:26:59;102309.50;;;3.27;61.12
17593;BME280;8915;51.760;14.300;2023-02-28T14:29:39;102308.63;;;3.26;60.67
17593;BME280;8915;51.760;14.300;2023-02-28T14:32:14;102305.19;;;3.26;62.91
17593;BME280;8915;51.760;14.300;2023-02-28T14:34:49;102312.28;;;3.33;62.87
17593;BME280;8915;51.760;14.300;2023-02-28T14:37:23;102309.69;;;3.33;62.17
17593;BME280;8915;51.760;14.300;2023-02-28T14:39:53;102314.69;;;3.28;61.56
17593;BME280;8915;51.760;14.300;2023-02-28T14:42:32;102310.22;;;3.22;61.09
17593;BME280;8915;51.760;14.300;2023-02-28T14:44:59;102315.34;;;3.21;62.23
17593;BME280;8915;51.760;14.300;2023-02-28T14:47:28;102307.50;;;3.18;61.62
17593;BME280;8915;51.760;14.300;2023-02-28T14:49:58;102298.91;;;3.17;62.89
17593;BME280;8915;51.760;14.300;2023-02-28T14:52:27;102305.13;;;3.24;63.09
17593;BME280;8915;51.760;14.300;2023-02-28T14:54:57;102306.81;;;3.23;63.42
17593;BME280;8915;51.760;14.300;2023-02-28T14:57:26;102295.50;;;3.18;62.98
17593;BME280;8915;51.760;14.300;2023-02-28T14:59:58;102302.13;;;3.10;63.33
17593;BME280;8915;51.760;14.300;2023-02-28T15:02:25;102297.66;;;3.05;64.47